sensor_id;sensor_type;location;lat;lon;timestamp;P1;durP1;ratioP1;P2;durP2;ratioP2
37529;SDS011;23374;52.758;6.872;2023-12-14T00:01:28;12.07;;;6.63;;
37529;SDS011;23374;52.758;6.872;2023-12-14T00:03:48;9.97;;;6.00;;
37529;SDS011;23374;52.758;6.872;2023-12-14T00:06:10;9.43;;;5.97;;
37529;SDS011;23374;52.758;6.872;2023-12-14T00:08:31;11.27;;;5.57;;
37529;SDS011;23374;52.758;6.872;2023-12-14T00:10:51;11.77;;;5.80;;
37529;SDS011;23374;52.758;6.872;2023-12-14T00:13:12;10.27;;;5.60;;
37529;SDS011;23374;52.758;6.872;2023-12-14T00:15:32;9.70;;;5.83;;
37529;SDS011;23374;52.758;6.872;2023-12-14T00:17:52;11.87;;;6.50;;
37529;SDS011;23374;52.758;6.872;2023-12-14T00:20:13;9.33;;;5.40;;
37529;SDS011;23374;52.758;6.872;2023-12-14T00:22:34;9.37;;;5.73;;
37529;SDS011;23374;52.758;6.872;2023-12-14T00:24:54;10.80;;;6.10;;
37529;SDS011;23374;52.758;6.872;2023-12-14T00:27:14;8.90;;;5.30;;
37529;SDS011;23374;52.758;6.872;2023-12-14T00:29:34;10.17;;;5.87;;
37529;SDS011;23374;52.758;6.872;2023-12-14T00:31:54;10.17;;;5.43;;
37529;SDS011;23374;52.758;6.872;2023-12-14T00:34:14;11.17;;;5.47;;
37529;SDS011;23374;52.758;6.872;2023-12-14T00:36:34;9.77;;;5.53;;
37529;SDS011;23374;52.758;6.872;2023-12-14T00:38:55;8.87;;;5.47;;
37529;SDS011;23374;52.758;6.872;2023-12-14T00:41:16;9.20;;;5.37;;
37529;SDS011;23374;52.758;6.872;2023-12-14T00:43:37;11.70;;;5.40;;
37529;SDS011;23374;52.758;6.872;2023-12-14T00:45:58;9.17;;;5.20;;
37529;SDS011;23374;52.758;6.872;2023-12-14T00:48:18;8.40;;;4.90;;
37529;SDS011;23374;52.758;6.872;2023-12-14T00:50:38;9.90;;;5.30;;
37529;SDS011;23374;52.758;6.872;2023-12-14T00:52:58;8.83;;;4.73;;
37529;SDS011;23374;52.758;6.872;2023-12-14T00:55:19;11.70;;;5.67;;
37529;SDS011;23374;52.758;6.872;2023-12-14T00:57:40;7.53;;;4.27;;
37529;SDS011;23374;52.758;6.872;2023-12-14T01:00:01;10.97;;;5.80;;
37529;SDS011;23374;52.758;6.872;2023-12-14T01:02:21;9.70;;;5.50;;
37529;SDS011;23374;52.758;6.872;2023-12-14T01:04:42;9.73;;;4.87;;
37529;SDS011;23374;52.758;6.872;2023-12-14T01:07:03;9.23;;;5.23;;
37529;SDS011;23374;52.758;6.872;2023-12-14T01:09:24;10.27;;;5.20;;
37529;SDS011;23374;52.758;6.872;2023-12-14T01:11:44;9.40;;;5.23;;
37529;SDS011;23374;52.758;6.872;2023-12-14T01:14:05;10.47;;;5.13;;
37529;SDS011;23374;52.758;6.872;2023-12-14T01:16:26;8.53;;;5.07;;
37529;SDS011;23374;52.758;6.872;2023-12-14T01:18:47;8.43;;;5.03;;
37529;SDS011;23374;52.758;6.872;2023-12-14T01:21:07;10.20;;;5.07;;
37529;SDS011;23374;52.758;6.872;2023-12-14T01:23:28;10.37;;;5.20;;
37529;SDS011;23374;52.758;6.872;2023-12-14T01:25:49;10.57;;;5.07;;
37529;SDS011;23374;52.758;6.872;2023-12-14T01:28:10;11.30;;;5.13;;
37529;SDS011;23374;52.758;6.872;2023-12-14T01:30:30;8.10;;;4.37;;
37529;SDS011;23374;52.758;6.872;2023-12-14T01:32:50;8.63;;;4.67;;
37529;SDS011;23374;52.758;6.872;2023-12-14T01:35:11;8.53;;;4.87;;
37529;SDS011;23374;52.758;6.872;2023-12-14T01:37:32;8.33;;;4.33;;
37529;SDS011;23374;52.758;6.872;2023-12-14T01:39:52;8.97;;;4.93;;
37529;SDS011;23374;52.758;6.872;2023-12-14T01:42:13;7.30;;;4.20;;
37529;SDS011;23374;52.758;6.872;2023-12-14T01:44:34;9.43;;;4.90;;
37529;SDS011;23374;52.758;6.872;2023-12-14T01:46:54;9.60;;;4.63;;
37529;SDS011;23374;52.758;6.872;2023-12-14T01:49:14;9.43;;;4.60;;
37529;SDS011;23374;52.758;6.872;2023-12-14T01:51:35;9.40;;;4.57;;
37529;SDS011;23374;52.758;6.872;2023-12-14T01:53:55;8.80;;;5.17;;
37529;SDS011;23374;52.758;6.872;2023-12-14T01:56:15;11.47;;;4.93;;
37529;SDS011;23374;52.758;6.872;2023-12-14T01:58:36;8.33;;;4.83;;
37529;SDS011;23374;52.758;6.872;2023-12-14T02:04:25;7.13;;;3.83;;
37529;SDS011;23374;52.758;6.872;2023-12-14T02:06:46;8.37;;;4.40;;
37529;SDS011;23374;52.758;6.872;2023-12-14T02:09:06;8.97;;;4.53;;
37529;SDS011;23374;52.758;6.872;2023-12-14T02:11:27;9.67;;;5.27;;
37529;SDS011;23374;52.758;6.872;2023-12-14T02:13:47;7.57;;;4.37;;
37529;SDS011;23374;52.758;6.872;2023-12-14T02:16:08;13.27;;;4.80;;
37529;SDS011;23374;52.758;6.872;2023-12-14T02:18:28;10.93;;;4.83;;
37529;SDS011;23374;52.758;6.872;2023-12-14T02:20:49;11.50;;;5.17;;
37529;SDS011;23374;52.758;6.872;2023-12-14T02:23:09;10.40;;;4.90;;
37529;SDS011;23374;52.758;6.872;2023-12-14T02:25:30;13.10;;;5.77;;
37529;SDS011;23374;52.758;6.872;2023-12-14T02:27:50;8.27;;;4.70;;
37529;SDS011;23374;52.758;6.872;2023-12-14T02:30:12;10.03;;;5.33;;
37529;SDS011;23374;52.758;6.872;2023-12-14T02:32:33;16.20;;;5.00;;
37529;SDS011;23374;52.758;6.872;2023-12-14T02:34:53;7.80;;;4.47;;
37529;SDS011;23374;52.758;6.872;2023-12-14T02:37:13;7.03;;;3.90;;
37529;SDS011;23374;52.758;6.872;2023-12-14T02:39:33;10.17;;;5.03;;
37529;SDS011;23374;52.758;6.872;2023-12-14T02:41:54;11.40;;;5.23;;
37529;SDS011;23374;52.758;6.872;2023-12-14T02:44:14;9.53;;;5.20;;
37529;SDS011;23374;52.758;6.872;2023-12-14T02:46:34;11.17;;;5.13;;
37529;SDS011;23374;52.758;6.872;2023-12-14T02:48:54;10.57;;;5.60;;
37529;SDS011;23374;52.758;6.872;2023-12-14T02:51:15;9.03;;;4.60;;
37529;SDS011;23374;52.758;6.872;2023-12-14T02:53:36;12.20;;;5.03;;
37529;SDS011;23374;52.758;6.872;2023-12-14T02:55:56;7.70;;;4.77;;
37529;SDS011;23374;52.758;6.872;2023-12-14T02:58:20;14.30;;;5.27;;
37529;SDS011;23374;52.758;6.872;2023-12-14T03:00:41;10.47;;;5.30;;
37529;SDS011;23374;52.758;6.872;2023-12-14T03:03:01;9.83;;;4.13;;
37529;SDS011;23374;52.758;6.872;2023-12-14T03:05:22;10.17;;;5.10;;
37529;SDS011;23374;52.758;6.872;2023-12-14T03:07:42;11.77;;;4.80;;
37529;SDS011;23374;52.758;6.872;2023-12-14T03:10:03;8.47;;;4.20;;
37529;SDS011;23374;52.758;6.872;2023-12-14T03:12:24;9.80;;;4.23;;
37529;SDS011;23374;52.758;6.872;2023-12-14T03:14:45;9.87;;;4.93;;
37529;SDS011;23374;52.758;6.872;2023-12-14T03:17:07;10.60;;;4.80;;
37529;SDS011;23374;52.758;6.872;2023-12-14T03:19:34;9.27;;;4.40;;
37529;SDS011;23374;52.758;6.872;2023-12-14T03:21:54;8.13;;;4.80;;
37529;SDS011;23374;52.758;6.872;2023-12-14T03:24:15;8.60;;;4.70;;
37529;SDS011;23374;52.758;6.872;2023-12-14T03:26:35;9.33;;;5.10;;
37529;SDS011;23374;52.758;6.872;2023-12-14T03:28:56;13.03;;;5.50;;
37529;SDS011;23374;52.758;6.872;2023-12-14T03:31:16;9.10;;;4.87;;
37529;SDS011;23374;52.758;6.872;2023-12-14T03:33:36;10.67;;;4.60;;
37529;SDS011;23374;52.758;6.872;2023-12-14T03:35:57;8.80;;;4.37;;
37529;SDS011;23374;52.758;6.872;2023-12-14T03:38:17;9.73;;;5.13;;
37529;SDS011;23374;52.758;6.872;2023-12-14T03:40:37;8.70;;;4.67;;
37529;SDS011;23374;52.758;6.872;2023-12-14T03:42:58;10.37;;;4.73;;
37529;SDS011;23374;52.758;6.872;2023-12-14T03:45:18;8.20;;;4.47;;
37529;SDS011;23374;52.758;6.872;2023-12-14T03:47:39;7.83;;;4.10;;
37529;SDS011;23374;52.758;6.872;2023-12-14T03:49:59;8.07;;;4.20;;
37529;SDS011;23374;52.758;6.872;2023-12-14T03:52:19;7.17;;;3.40;;
37529;SDS011;23374;52.758;6.872;2023-12-14T03:54:39;8.23;;;4.70;;
37529;SDS011;23374;52.758;6.872;2023-12-14T03:56:59;11.00;;;4.40;;
37529;SDS011;23374;52.758;6.872;2023-12-14T03:59:19;8.00;;;4.23;;
37529;SDS011;23374;52.758;6.872;2023-12-14T04:01:40;11.27;;;4.40;;
37529;SDS011;23374;52.758;6.872;2023-12-14T04:04:00;5.83;;;3.83;;
37529;SDS011;23374;52.758;6.872;2023-12-14T04:06:21;12.67;;;5.10;;
37529;SDS011;23374;52.758;6.872;2023-12-14T04:08:41;6.83;;;4.07;;
37529;SDS011;23374;52.758;6.872;2023-12-14T04:11:02;7.97;;;4.30;;
37529;SDS011;23374;52.758;6.872;2023-12-14T04:13:23;11.63;;;4.27;;
37529;SDS011;23374;52.758;6.872;2023-12-14T04:15:43;6.67;;;4.27;;
37529;SDS011;23374;52.758;6.872;2023-12-14T04:18:04;8.37;;;4.27;;
37529;SDS011;23374;52.758;6.872;2023-12-14T04:20:27;8.37;;;4.17;;
37529;SDS011;23374;52.758;6.872;2023-12-14T04:22:47;7.33;;;4.43;;
37529;SDS011;23374;52.758;6.872;2023-12-14T04:25:08;13.90;;;5.07;;
37529;SDS011;23374;52.758;6.872;2023-12-14T04:27:28;9.93;;;4.37;;
37529;SDS011;23374;52.758;6.872;2023-12-14T04:29:49;8.43;;;4.30;;
37529;SDS011;23374;52.758;6.872;2023-12-14T04:32:10;7.17;;;4.03;;
37529;SDS011;23374;52.758;6.872;2023-12-14T04:34:31;8.40;;;3.90;;
37529;SDS011;23374;52.758;6.872;2023-12-14T04:36:51;8.13;;;3.87;;
37529;SDS011;23374;52.758;6.872;2023-12-14T04:39:12;9.30;;;3.90;;
37529;SDS011;23374;52.758;6.872;2023-12-14T04:41:33;8.57;;;4.13;;
37529;SDS011;23374;52.758;6.872;2023-12-14T04:43:53;8.47;;;4.20;;
37529;SDS011;23374;52.758;6.872;2023-12-14T04:46:13;10.53;;;3.97;;
37529;SDS011;23374;52.758;6.872;2023-12-14T04:48:34;8.67;;;4.00;;
37529;SDS011;23374;52.758;6.872;2023-12-14T04:50:54;8.07;;;3.90;;
37529;SDS011;23374;52.758;6.872;2023-12-14T04:53:15;8.47;;;4.13;;
37529;SDS011;23374;52.758;6.872;2023-12-14T04:55:35;6.47;;;3.90;;
37529;SDS011;23374;52.758;6.872;2023-12-14T04:57:55;11.03;;;4.50;;
37529;SDS011;23374;52.758;6.872;2023-12-14T05:00:16;6.90;;;3.50;;
37529;SDS011;23374;52.758;6.872;2023-12-14T05:02:37;7.53;;;3.67;;
37529;SDS011;23374;52.758;6.872;2023-12-14T05:04:57;10.10;;;4.93;;
37529;SDS011;23374;52.758;6.872;2023-12-14T05:07:17;8.63;;;4.43;;
37529;SDS011;23374;52.758;6.872;2023-12-14T05:09:38;8.47;;;4.27;;
37529;SDS011;23374;52.758;6.872;2023-12-14T05:11:58;7.97;;;4.20;;
37529;SDS011;23374;52.758;6.872;2023-12-14T05:14:19;7.47;;;3.90;;
37529;SDS011;23374;52.758;6.872;2023-12-14T05:16:39;9.27;;;4.80;;
37529;SDS011;23374;52.758;6.872;2023-12-14T05:19:00;6.50;;;3.67;;
37529;SDS011;23374;52.758;6.872;2023-12-14T05:21:20;9.80;;;4.13;;
37529;SDS011;23374;52.758;6.872;2023-12-14T05:23:41;5.87;;;3.67;;
37529;SDS011;23374;52.758;6.872;2023-12-14T05:26:01;8.13;;;4.20;;
37529;SDS011;23374;52.758;6.872;2023-12-14T05:28:21;6.97;;;3.83;;
37529;SDS011;23374;52.758;6.872;2023-12-14T05:30:42;8.63;;;4.23;;
37529;SDS011;23374;52.758;6.872;2023-12-14T05:33:02;9.33;;;4.20;;
37529;SDS011;23374;52.758;6.872;2023-12-14T05:35:23;7.43;;;3.50;;
37529;SDS011;23374;52.758;6.872;2023-12-14T05:37:43;12.33;;;4.17;;
37529;SDS011;23374;52.758;6.872;2023-12-14T05:40:04;12.87;;;4.17;;
37529;SDS011;23374;52.758;6.872;2023-12-14T05:42:25;8.07;;;4.10;;
37529;SDS011;23374;52.758;6.872;2023-12-14T05:44:46;6.40;;;3.90;;
37529;SDS011;23374;52.758;6.872;2023-12-14T05:47:06;7.07;;;3.70;;
37529;SDS011;23374;52.758;6.872;2023-12-14T05:49:27;9.40;;;4.27;;
37529;SDS011;23374;52.758;6.872;2023-12-14T05:51:47;6.70;;;3.80;;
37529;SDS011;23374;52.758;6.872;2023-12-14T05:54:07;9.40;;;4.23;;
37529;SDS011;23374;52.758;6.872;2023-12-14T05:56:28;7.40;;;4.13;;
37529;SDS011;23374;52.758;6.872;2023-12-14T05:58:49;9.40;;;4.30;;
37529;SDS011;23374;52.758;6.872;2023-12-14T06:01:09;9.00;;;4.03;;
37529;SDS011;23374;52.758;6.872;2023-12-14T06:03:30;7.30;;;4.00;;
37529;SDS011;23374;52.758;6.872;2023-12-14T06:05:51;8.47;;;4.17;;
37529;SDS011;23374;52.758;6.872;2023-12-14T06:08:11;7.30;;;3.73;;
37529;SDS011;23374;52.758;6.872;2023-12-14T06:10:32;8.70;;;4.47;;
37529;SDS011;23374;52.758;6.872;2023-12-14T06:12:52;9.00;;;4.20;;
37529;SDS011;23374;52.758;6.872;2023-12-14T06:15:12;6.63;;;3.70;;
37529;SDS011;23374;52.758;6.872;2023-12-14T06:17:33;8.73;;;4.50;;
37529;SDS011;23374;52.758;6.872;2023-12-14T06:19:53;7.37;;;4.07;;
37529;SDS011;23374;52.758;6.872;2023-12-14T06:22:14;8.97;;;4.23;;
37529;SDS011;23374;52.758;6.872;2023-12-14T06:24:35;7.67;;;4.33;;
37529;SDS011;23374;52.758;6.872;2023-12-14T06:26:55;8.93;;;4.50;;
37529;SDS011;23374;52.758;6.872;2023-12-14T06:29:15;7.27;;;4.70;;
37529;SDS011;23374;52.758;6.872;2023-12-14T06:31:36;10.20;;;4.50;;
37529;SDS011;23374;52.758;6.872;2023-12-14T06:33:58;8.30;;;4.67;;
37529;SDS011;23374;52.758;6.872;2023-12-14T06:36:20;8.53;;;4.27;;
37529;SDS011;23374;52.758;6.872;2023-12-14T06:38:41;9.33;;;4.60;;
37529;SDS011;23374;52.758;6.872;2023-12-14T06:41:01;10.70;;;5.17;;
37529;SDS011;23374;52.758;6.872;2023-12-14T06:43:21;8.83;;;4.70;;
37529;SDS011;23374;52.758;6.872;2023-12-14T06:45:42;8.53;;;4.67;;
37529;SDS011;23374;52.758;6.872;2023-12-14T06:48:03;9.27;;;5.10;;
37529;SDS011;23374;52.758;6.872;2023-12-14T06:50:23;9.10;;;4.47;;
37529;SDS011;23374;52.758;6.872;2023-12-14T06:52:44;9.23;;;5.00;;
37529;SDS011;23374;52.758;6.872;2023-12-14T06:55:04;12.67;;;5.37;;
37529;SDS011;23374;52.758;6.872;2023-12-14T06:57:26;10.10;;;4.37;;
37529;SDS011;23374;52.758;6.872;2023-12-14T06:59:48;9.63;;;4.13;;
37529;SDS011;23374;52.758;6.872;2023-12-14T07:02:08;8.10;;;4.47;;
37529;SDS011;23374;52.758;6.872;2023-12-14T07:04:29;8.40;;;4.57;;
37529;SDS011;23374;52.758;6.872;2023-12-14T07:06:52;8.23;;;4.13;;
37529;SDS011;23374;52.758;6.872;2023-12-14T07:09:13;7.13;;;4.00;;
37529;SDS011;23374;52.758;6.872;2023-12-14T07:11:34;8.53;;;4.23;;
37529;SDS011;23374;52.758;6.872;2023-12-14T07:13:55;9.33;;;4.57;;
37529;SDS011;23374;52.758;6.872;2023-12-14T07:16:15;7.40;;;3.97;;
37529;SDS011;23374;52.758;6.872;2023-12-14T07:18:38;9.70;;;5.10;;
37529;SDS011;23374;52.758;6.872;2023-12-14T07:20:59;7.67;;;4.77;;
37529;SDS011;23374;52.758;6.872;2023-12-14T07:23:20;8.73;;;4.23;;
37529;SDS011;23374;52.758;6.872;2023-12-14T07:25:40;7.20;;;4.03;;
37529;SDS011;23374;52.758;6.872;2023-12-14T07:28:01;9.03;;;4.30;;
37529;SDS011;23374;52.758;6.872;2023-12-14T07:30:22;6.97;;;4.57;;
37529;SDS011;23374;52.758;6.872;2023-12-14T07:32:43;6.70;;;3.97;;
37529;SDS011;23374;52.758;6.872;2023-12-14T07:35:04;5.87;;;4.00;;
37529;SDS011;23374;52.758;6.872;2023-12-14T07:37:25;8.87;;;4.63;;
37529;SDS011;23374;52.758;6.872;2023-12-14T07:39:46;8.03;;;4.50;;
37529;SDS011;23374;52.758;6.872;2023-12-14T07:42:06;7.03;;;3.90;;
37529;SDS011;23374;52.758;6.872;2023-12-14T07:44:27;7.37;;;4.23;;
37529;SDS011;23374;52.758;6.872;2023-12-14T07:46:49;9.03;;;4.17;;
37529;SDS011;23374;52.758;6.872;2023-12-14T07:49:10;9.83;;;4.70;;
37529;SDS011;23374;52.758;6.872;2023-12-14T07:51:30;7.87;;;4.30;;
37529;SDS011;23374;52.758;6.872;2023-12-14T07:53:51;8.13;;;4.17;;
37529;SDS011;23374;52.758;6.872;2023-12-14T07:56:11;11.30;;;4.37;;
37529;SDS011;23374;52.758;6.872;2023-12-14T07:58:32;8.10;;;4.30;;
37529;SDS011;23374;52.758;6.872;2023-12-14T08:00:52;10.03;;;4.33;;
37529;SDS011;23374;52.758;6.872;2023-12-14T08:03:13;6.87;;;4.00;;
37529;SDS011;23374;52.758;6.872;2023-12-14T08:05:33;7.03;;;3.73;;
37529;SDS011;23374;52.758;6.872;2023-12-14T08:07:54;8.33;;;4.00;;
37529;SDS011;23374;52.758;6.872;2023-12-14T08:10:14;9.03;;;4.50;;
37529;SDS011;23374;52.758;6.872;2023-12-14T08:12:35;10.50;;;4.40;;
37529;SDS011;23374;52.758;6.872;2023-12-14T08:14:55;7.07;;;4.00;;
37529;SDS011;23374;52.758;6.872;2023-12-14T08:17:16;8.67;;;4.20;;
37529;SDS011;23374;52.758;6.872;2023-12-14T08:19:36;8.50;;;4.07;;
37529;SDS011;23374;52.758;6.872;2023-12-14T08:21:57;7.43;;;4.67;;
37529;SDS011;23374;52.758;6.872;2023-12-14T08:24:17;8.70;;;4.50;;
37529;SDS011;23374;52.758;6.872;2023-12-14T08:26:38;9.30;;;4.23;;
37529;SDS011;23374;52.758;6.872;2023-12-14T08:28:58;10.43;;;4.50;;
37529;SDS011;23374;52.758;6.872;2023-12-14T08:31:18;7.47;;;4.17;;
37529;SDS011;23374;52.758;6.872;2023-12-14T08:33:42;8.80;;;4.27;;
37529;SDS011;23374;52.758;6.872;2023-12-14T08:36:03;7.87;;;4.17;;
37529;SDS011;23374;52.758;6.872;2023-12-14T08:38:25;8.30;;;4.13;;
37529;SDS011;23374;52.758;6.872;2023-12-14T08:40:46;10.60;;;4.70;;
37529;SDS011;23374;52.758;6.872;2023-12-14T08:43:06;12.37;;;4.53;;
37529;SDS011;23374;52.758;6.872;2023-12-14T08:45:27;11.27;;;4.90;;
37529;SDS011;23374;52.758;6.872;2023-12-14T08:47:48;9.73;;;4.70;;
37529;SDS011;23374;52.758;6.872;2023-12-14T08:50:08;9.37;;;5.13;;
37529;SDS011;23374;52.758;6.872;2023-12-14T08:52:29;10.77;;;4.73;;
37529;SDS011;23374;52.758;6.872;2023-12-14T08:54:49;12.27;;;5.43;;
37529;SDS011;23374;52.758;6.872;2023-12-14T08:57:09;10.23;;;4.80;;
37529;SDS011;23374;52.758;6.872;2023-12-14T08:59:31;12.73;;;4.87;;
37529;SDS011;23374;52.758;6.872;2023-12-14T09:01:51;9.97;;;4.50;;
37529;SDS011;23374;52.758;6.872;2023-12-14T09:04:13;11.47;;;4.77;;
37529;SDS011;23374;52.758;6.872;2023-12-14T09:06:33;9.80;;;4.60;;
37529;SDS011;23374;52.758;6.872;2023-12-14T09:08:54;11.20;;;5.57;;
37529;SDS011;23374;52.758;6.872;2023-12-14T09:11:14;9.07;;;4.97;;
37529;SDS011;23374;52.758;6.872;2023-12-14T09:13:35;9.50;;;4.93;;
37529;SDS011;23374;52.758;6.872;2023-12-14T09:15:55;9.40;;;4.67;;
37529;SDS011;23374;52.758;6.872;2023-12-14T09:18:16;8.93;;;4.50;;
37529;SDS011;23374;52.758;6.872;2023-12-14T09:20:36;9.90;;;4.83;;
37529;SDS011;23374;52.758;6.872;2023-12-14T09:22:57;13.90;;;5.87;;
37529;SDS011;23374;52.758;6.872;2023-12-14T09:25:17;10.83;;;5.77;;
37529;SDS011;23374;52.758;6.872;2023-12-14T09:27:38;13.03;;;5.03;;
37529;SDS011;23374;52.758;6.872;2023-12-14T09:29:59;9.73;;;5.10;;
37529;SDS011;23374;52.758;6.872;2023-12-14T09:32:20;10.27;;;5.03;;
37529;SDS011;23374;52.758;6.872;2023-12-14T09:34:40;11.50;;;5.10;;
37529;SDS011;23374;52.758;6.872;2023-12-14T09:37:00;10.60;;;5.23;;
37529;SDS011;23374;52.758;6.872;2023-12-14T09:39:21;11.40;;;4.77;;
37529;SDS011;23374;52.758;6.872;2023-12-14T09:41:42;12.30;;;5.67;;
37529;SDS011;23374;52.758;6.872;2023-12-14T09:44:04;13.93;;;5.00;;
37529;SDS011;23374;52.758;6.872;2023-12-14T09:46:26;14.07;;;5.23;;
37529;SDS011;23374;52.758;6.872;2023-12-14T09:48:47;11.30;;;4.87;;
37529;SDS011;23374;52.758;6.872;2023-12-14T09:51:12;7.77;;;4.67;;
37529;SDS011;23374;52.758;6.872;2023-12-14T09:53:33;11.27;;;4.93;;
37529;SDS011;23374;52.758;6.872;2023-12-14T09:55:53;9.47;;;5.17;;
37529;SDS011;23374;52.758;6.872;2023-12-14T09:58:13;11.50;;;5.33;;
37529;SDS011;23374;52.758;6.872;2023-12-14T10:00:40;12.40;;;5.20;;
37529;SDS011;23374;52.758;6.872;2023-12-14T10:03:24;11.13;;;5.37;;
37529;SDS011;23374;52.758;6.872;2023-12-14T10:05:47;10.70;;;5.53;;
37529;SDS011;23374;52.758;6.872;2023-12-14T10:08:08;11.43;;;5.17;;
37529;SDS011;23374;52.758;6.872;2023-12-14T10:10:29;10.43;;;5.37;;
37529;SDS011;23374;52.758;6.872;2023-12-14T10:12:53;9.67;;;5.00;;
37529;SDS011;23374;52.758;6.872;2023-12-14T10:15:14;10.60;;;5.33;;
37529;SDS011;23374;52.758;6.872;2023-12-14T10:17:34;10.27;;;5.33;;
37529;SDS011;23374;52.758;6.872;2023-12-14T10:19:54;9.57;;;5.00;;
37529;SDS011;23374;52.758;6.872;2023-12-14T10:22:15;10.33;;;5.10;;
37529;SDS011;23374;52.758;6.872;2023-12-14T10:24:37;7.13;;;4.30;;
37529;SDS011;23374;52.758;6.872;2023-12-14T10:26:57;9.33;;;5.23;;
37529;SDS011;23374;52.758;6.872;2023-12-14T10:29:17;9.27;;;5.10;;
37529;SDS011;23374;52.758;6.872;2023-12-14T10:31:38;12.50;;;5.40;;
37529;SDS011;23374;52.758;6.872;2023-12-14T10:33:58;9.83;;;4.90;;
37529;SDS011;23374;52.758;6.872;2023-12-14T10:36:19;13.57;;;5.13;;
37529;SDS011;23374;52.758;6.872;2023-12-14T10:38:43;10.97;;;5.30;;
37529;SDS011;23374;52.758;6.872;2023-12-14T10:41:05;9.87;;;5.60;;
37529;SDS011;23374;52.758;6.872;2023-12-14T10:43:27;9.63;;;4.87;;
37529;SDS011;23374;52.758;6.872;2023-12-14T10:45:48;10.67;;;5.03;;
37529;SDS011;23374;52.758;6.872;2023-12-14T10:48:09;9.37;;;4.93;;
37529;SDS011;23374;52.758;6.872;2023-12-14T10:50:33;10.03;;;5.20;;
37529;SDS011;23374;52.758;6.872;2023-12-14T10:52:59;10.83;;;5.40;;
37529;SDS011;23374;52.758;6.872;2023-12-14T10:55:33;10.40;;;5.30;;
37529;SDS011;23374;52.758;6.872;2023-12-14T10:57:57;10.67;;;5.03;;
37529;SDS011;23374;52.758;6.872;2023-12-14T11:00:18;9.97;;;4.73;;
37529;SDS011;23374;52.758;6.872;2023-12-14T11:02:45;10.37;;;4.93;;
37529;SDS011;23374;52.758;6.872;2023-12-14T11:05:06;11.07;;;5.20;;
37529;SDS011;23374;52.758;6.872;2023-12-14T11:08:21;11.63;;;5.27;;
37529;SDS011;23374;52.758;6.872;2023-12-14T11:10:52;13.07;;;5.10;;
37529;SDS011;23374;52.758;6.872;2023-12-14T11:13:16;12.00;;;6.10;;
37529;SDS011;23374;52.758;6.872;2023-12-14T11:15:37;12.23;;;5.73;;
37529;SDS011;23374;52.758;6.872;2023-12-14T11:18:32;11.53;;;5.10;;
37529;SDS011;23374;52.758;6.872;2023-12-14T11:20:59;12.07;;;5.37;;
37529;SDS011;23374;52.758;6.872;2023-12-14T11:23:31;8.10;;;4.87;;
37529;SDS011;23374;52.758;6.872;2023-12-14T11:25:58;13.63;;;5.93;;
37529;SDS011;23374;52.758;6.872;2023-12-14T11:28:26;11.13;;;5.27;;
37529;SDS011;23374;52.758;6.872;2023-12-14T11:30:47;12.10;;;5.53;;
37529;SDS011;23374;52.758;6.872;2023-12-14T11:33:07;9.10;;;4.73;;
37529;SDS011;23374;52.758;6.872;2023-12-14T11:35:28;13.87;;;5.90;;
37529;SDS011;23374;52.758;6.872;2023-12-14T11:37:49;10.80;;;5.33;;
37529;SDS011;23374;52.758;6.872;2023-12-14T11:40:11;11.37;;;5.47;;
37529;SDS011;23374;52.758;6.872;2023-12-14T11:42:35;12.87;;;5.70;;
37529;SDS011;23374;52.758;6.872;2023-12-14T11:44:56;13.50;;;6.00;;
37529;SDS011;23374;52.758;6.872;2023-12-14T11:47:17;10.47;;;5.07;;
37529;SDS011;23374;52.758;6.872;2023-12-14T11:49:37;13.90;;;5.97;;
37529;SDS011;23374;52.758;6.872;2023-12-14T11:51:57;12.83;;;5.33;;
37529;SDS011;23374;52.758;6.872;2023-12-14T11:54:22;12.33;;;5.93;;
37529;SDS011;23374;52.758;6.872;2023-12-14T11:56:46;13.00;;;5.97;;
37529;SDS011;23374;52.758;6.872;2023-12-14T11:59:10;12.60;;;6.17;;
37529;SDS011;23374;52.758;6.872;2023-12-14T12:01:31;11.93;;;5.93;;
37529;SDS011;23374;52.758;6.872;2023-12-14T12:03:53;11.10;;;5.53;;
37529;SDS011;23374;52.758;6.872;2023-12-14T12:06:23;11.87;;;5.60;;
37529;SDS011;23374;52.758;6.872;2023-12-14T12:08:50;13.93;;;6.03;;
37529;SDS011;23374;52.758;6.872;2023-12-14T12:11:18;10.57;;;5.67;;
37529;SDS011;23374;52.758;6.872;2023-12-14T12:13:40;11.77;;;5.43;;
37529;SDS011;23374;52.758;6.872;2023-12-14T12:16:01;10.13;;;5.07;;
37529;SDS011;23374;52.758;6.872;2023-12-14T12:18:21;12.03;;;5.77;;
37529;SDS011;23374;52.758;6.872;2023-12-14T12:20:42;9.50;;;4.63;;
37529;SDS011;23374;52.758;6.872;2023-12-14T12:23:02;11.43;;;5.13;;
37529;SDS011;23374;52.758;6.872;2023-12-14T12:25:23;12.60;;;5.43;;
37529;SDS011;23374;52.758;6.872;2023-12-14T12:27:44;9.60;;;5.20;;
37529;SDS011;23374;52.758;6.872;2023-12-14T12:30:05;11.93;;;5.57;;
37529;SDS011;23374;52.758;6.872;2023-12-14T12:32:26;11.87;;;5.53;;
37529;SDS011;23374;52.758;6.872;2023-12-14T12:34:47;13.50;;;6.00;;
37529;SDS011;23374;52.758;6.872;2023-12-14T12:37:07;10.77;;;5.47;;
37529;SDS011;23374;52.758;6.872;2023-12-14T12:39:27;12.13;;;6.13;;
37529;SDS011;23374;52.758;6.872;2023-12-14T12:41:48;12.97;;;5.80;;
37529;SDS011;23374;52.758;6.872;2023-12-14T12:44:09;10.77;;;5.53;;
37529;SDS011;23374;52.758;6.872;2023-12-14T12:46:29;12.70;;;5.60;;
37529;SDS011;23374;52.758;6.872;2023-12-14T12:48:50;11.37;;;5.97;;
37529;SDS011;23374;52.758;6.872;2023-12-14T12:51:11;11.30;;;5.67;;
37529;SDS011;23374;52.758;6.872;2023-12-14T12:53:32;11.40;;;5.87;;
37529;SDS011;23374;52.758;6.872;2023-12-14T12:55:52;12.47;;;5.97;;
37529;SDS011;23374;52.758;6.872;2023-12-14T12:58:13;15.50;;;6.03;;
37529;SDS011;23374;52.758;6.872;2023-12-14T13:00:34;10.60;;;5.67;;
37529;SDS011;23374;52.758;6.872;2023-12-14T13:02:56;8.83;;;5.00;;
37529;SDS011;23374;52.758;6.872;2023-12-14T13:05:16;11.23;;;5.20;;
37529;SDS011;23374;52.758;6.872;2023-12-14T13:07:37;10.93;;;5.57;;
37529;SDS011;23374;52.758;6.872;2023-12-14T13:09:57;9.30;;;4.83;;
37529;SDS011;23374;52.758;6.872;2023-12-14T13:12:18;11.03;;;5.60;;
37529;SDS011;23374;52.758;6.872;2023-12-14T13:14:40;12.17;;;5.70;;
37529;SDS011;23374;52.758;6.872;2023-12-14T13:17:00;8.53;;;4.93;;
37529;SDS011;23374;52.758;6.872;2023-12-14T13:19:20;11.43;;;4.40;;
37529;SDS011;23374;52.758;6.872;2023-12-14T13:21:42;10.97;;;5.40;;
37529;SDS011;23374;52.758;6.872;2023-12-14T13:24:03;11.87;;;5.37;;
37529;SDS011;23374;52.758;6.872;2023-12-14T13:26:23;11.50;;;5.30;;
37529;SDS011;23374;52.758;6.872;2023-12-14T13:28:44;10.80;;;5.07;;
37529;SDS011;23374;52.758;6.872;2023-12-14T13:31:04;12.53;;;5.37;;
37529;SDS011;23374;52.758;6.872;2023-12-14T13:33:26;12.13;;;5.20;;
37529;SDS011;23374;52.758;6.872;2023-12-14T13:35:46;10.10;;;5.00;;
37529;SDS011;23374;52.758;6.872;2023-12-14T13:38:07;9.10;;;4.90;;
37529;SDS011;23374;52.758;6.872;2023-12-14T13:40:28;12.33;;;5.83;;
37529;SDS011;23374;52.758;6.872;2023-12-14T13:42:48;13.80;;;5.57;;
37529;SDS011;23374;52.758;6.872;2023-12-14T13:45:09;15.73;;;5.53;;
37529;SDS011;23374;52.758;6.872;2023-12-14T13:47:30;9.83;;;5.33;;
37529;SDS011;23374;52.758;6.872;2023-12-14T13:49:51;12.13;;;5.47;;
37529;SDS011;23374;52.758;6.872;2023-12-14T13:52:13;11.70;;;5.50;;
37529;SDS011;23374;52.758;6.872;2023-12-14T13:54:33;11.07;;;5.47;;
37529;SDS011;23374;52.758;6.872;2023-12-14T13:56:56;9.40;;;5.37;;
37529;SDS011;23374;52.758;6.872;2023-12-14T13:59:17;11.43;;;5.53;;
37529;SDS011;23374;52.758;6.872;2023-12-14T14:01:37;11.13;;;5.73;;
37529;SDS011;23374;52.758;6.872;2023-12-14T14:03:58;10.20;;;5.47;;
37529;SDS011;23374;52.758;6.872;2023-12-14T14:06:18;10.57;;;5.13;;
37529;SDS011;23374;52.758;6.872;2023-12-14T14:08:40;9.80;;;4.83;;